sensor_id;sensor_type;location;lat;lon;timestamp;P1;durP1;ratioP1;P2;durP2;ratioP2
4106;SDS011;21906;50.812;7.132;2023-01-15T00:00:59;1.37;;;0.60;;
4106;SDS011;21906;50.812;7.132;2023-01-15T00:03:25;0.87;;;0.60;;
4106;SDS011;21906;50.812;7.132;2023-01-15T00:05:51;1.57;;;0.70;;
4106;SDS011;21906;50.812;7.132;2023-01-15T00:08:18;1.53;;;0.60;;
4106;SDS011;21906;50.812;7.132;2023-01-15T00:10:43;1.00;;;0.70;;
4106;SDS011;21906;50.812;7.132;2023-01-15T00:13:09;2.23;;;0.70;;
4106;SDS011;21906;50.812;7.132;2023-01-15T00:15:35;1.10;;;0.80;;
4106;SDS011;21906;50.812;7.132;2023-01-15T00:18:01;1.10;;;0.70;;
4106;SDS011;21906;50.812;7.132;2023-01-15T00:20:26;1.23;;;0.80;;
4106;SDS011;21906;50.812;7.132;2023-01-15T00:22:52;1.33;;;0.70;;
4106;SDS011;21906;50.812;7.132;2023-01-15T00:25:18;1.60;;;1.00;;
4106;SDS011;21906;50.812;7.132;2023-01-15T00:28:02;1.43;;;0.80;;
4106;SDS011;21906;50.812;7.132;2023-01-15T00:30:28;1.07;;;0.80;;
4106;SDS011;21906;50.812;7.132;2023-01-15T00:32:54;1.47;;;0.73;;
4106;SDS011;21906;50.812;7.132;2023-01-15T00:35:20;1.10;;;0.70;;
4106;SDS011;21906;50.812;7.132;2023-01-15T00:37:47;1.13;;;0.90;;
4106;SDS011;21906;50.812;7.132;2023-01-15T00:40:14;1.23;;;0.80;;
4106;SDS011;21906;50.812;7.132;2023-01-15T00:42:41;1.60;;;0.80;;
4106;SDS011;21906;50.812;7.132;2023-01-15T00:45:08;1.30;;;0.80;;
4106;SDS011;21906;50.812;7.132;2023-01-15T00:47:35;1.00;;;0.70;;
4106;SDS011;21906;50.812;7.132;2023-01-15T00:50:05;0.90;;;0.67;;
4106;SDS011;21906;50.812;7.132;2023-01-15T00:52:37;1.70;;;0.70;;
4106;SDS011;21906;50.812;7.132;2023-01-15T00:55:03;1.50;;;0.80;;
4106;SDS011;21906;50.812;7.132;2023-01-15T00:57:30;1.60;;;0.77;;
4106;SDS011;21906;50.812;7.132;2023-01-15T00:59:56;1.20;;;0.70;;
4106;SDS011;21906;50.812;7.132;2023-01-15T01:02:21;0.80;;;0.60;;
4106;SDS011;21906;50.812;7.132;2023-01-15T01:04:47;1.30;;;0.80;;
4106;SDS011;21906;50.812;7.132;2023-01-15T01:07:13;1.57;;;0.70;;
4106;SDS011;21906;50.812;7.132;2023-01-15T01:09:39;1.07;;;0.60;;
4106;SDS011;21906;50.812;7.132;2023-01-15T01:12:05;1.40;;;0.67;;
4106;SDS011;21906;50.812;7.132;2023-01-15T01:14:31;1.57;;;0.70;;
4106;SDS011;21906;50.812;7.132;2023-01-15T01:16:56;1.60;;;1.17;;
4106;SDS011;21906;50.812;7.132;2023-01-15T01:19:22;2.97;;;0.97;;
4106;SDS011;21906;50.812;7.132;2023-01-15T01:21:48;1.57;;;0.73;;
4106;SDS011;21906;50.812;7.132;2023-01-15T01:24:16;1.10;;;0.60;;
4106;SDS011;21906;50.812;7.132;2023-01-15T01:26:44;0.80;;;0.60;;
4106;SDS011;21906;50.812;7.132;2023-01-15T01:29:11;0.77;;;0.53;;
4106;SDS011;21906;50.812;7.132;2023-01-15T01:31:38;0.90;;;0.70;;
4106;SDS011;21906;50.812;7.132;2023-01-15T01:34:03;0.83;;;0.70;;
4106;SDS011;21906;50.812;7.132;2023-01-15T01:36:30;0.90;;;0.60;;
4106;SDS011;21906;50.812;7.132;2023-01-15T01:38:58;0.93;;;0.60;;
4106;SDS011;21906;50.812;7.132;2023-01-15T01:41:25;1.00;;;0.70;;
4106;SDS011;21906;50.812;7.132;2023-01-15T01:46:56;1.80;;;0.90;;
4106;SDS011;21906;50.812;7.132;2023-01-15T01:49:21;1.17;;;0.70;;
4106;SDS011;21906;50.812;7.132;2023-01-15T01:51:53;0.80;;;0.60;;
4106;SDS011;21906;50.812;7.132;2023-01-15T01:54:23;1.00;;;0.67;;
4106;SDS011;21906;50.812;7.132;2023-01-15T01:56:50;1.80;;;0.70;;
4106;SDS011;21906;50.812;7.132;2023-01-15T01:59:17;0.93;;;0.60;;
4106;SDS011;21906;50.812;7.132;2023-01-15T02:01:46;0.93;;;0.60;;
4106;SDS011;21906;50.812;7.132;2023-01-15T02:04:14;1.43;;;0.50;;
4106;SDS011;21906;50.812;7.132;2023-01-15T02:06:42;1.37;;;0.60;;
4106;SDS011;21906;50.812;7.132;2023-01-15T02:09:08;1.43;;;0.80;;
4106;SDS011;21906;50.812;7.132;2023-01-15T02:11:33;0.90;;;0.50;;
4106;SDS011;21906;50.812;7.132;2023-01-15T02:14:04;1.90;;;0.77;;
4106;SDS011;21906;50.812;7.132;2023-01-15T02:17:00;1.90;;;0.70;;
4106;SDS011;21906;50.812;7.132;2023-01-15T02:28:00;0.90;;;0.73;;
4106;SDS011;21906;50.812;7.132;2023-01-15T02:31:19;0.77;;;0.60;;
4106;SDS011;21906;50.812;7.132;2023-01-15T02:34:03;0.80;;;0.50;;
4106;SDS011;21906;50.812;7.132;2023-01-15T02:36:32;1.47;;;0.70;;
4106;SDS011;21906;50.812;7.132;2023-01-15T02:39:01;1.00;;;0.70;;
4106;SDS011;21906;50.812;7.132;2023-01-15T02:42:23;1.00;;;0.70;;
4106;SDS011;21906;50.812;7.132;2023-01-15T02:44:52;1.10;;;0.70;;
4106;SDS011;21906;50.812;7.132;2023-01-15T02:47:23;0.80;;;0.60;;
4106;SDS011;21906;50.812;7.132;2023-01-15T02:49:56;0.80;;;0.60;;
4106;SDS011;21906;50.812;7.132;2023-01-15T02:52:26;1.10;;;0.70;;
4106;SDS011;21906;50.812;7.132;2023-01-15T02:54:57;1.77;;;0.60;;
4106;SDS011;21906;50.812;7.132;2023-01-15T02:57:28;0.90;;;0.50;;
4106;SDS011;21906;50.812;7.132;2023-01-15T02:59:57;1.30;;;0.70;;
4106;SDS011;21906;50.812;7.132;2023-01-15T03:02:30;0.90;;;0.60;;
4106;SDS011;21906;50.812;7.132;2023-01-15T03:05:07;1.03;;;0.63;;
4106;SDS011;21906;50.812;7.132;2023-01-15T03:10:42;0.90;;;0.60;;
4106;SDS011;21906;50.812;7.132;2023-01-15T03:13:36;0.70;;;0.50;;
4106;SDS011;21906;50.812;7.132;2023-01-15T03:19:16;0.80;;;0.53;;
4106;SDS011;21906;50.812;7.132;2023-01-15T03:27:10;0.90;;;0.60;;
4106;SDS011;21906;50.812;7.132;2023-01-15T03:29:37;1.10;;;0.60;;
4106;SDS011;21906;50.812;7.132;2023-01-15T03:32:06;1.43;;;0.50;;
4106;SDS011;21906;50.812;7.132;2023-01-15T03:34:42;1.23;;;0.50;;
4106;SDS011;21906;50.812;7.132;2023-01-15T03:37:11;0.70;;;0.60;;
4106;SDS011;21906;50.812;7.132;2023-01-15T03:39:38;4.27;;;1.00;;
4106;SDS011;21906;50.812;7.132;2023-01-15T03:53:05;1.87;;;0.70;;
4106;SDS011;21906;50.812;7.132;2023-01-15T03:56:01;1.37;;;0.70;;
4106;SDS011;21906;50.812;7.132;2023-01-15T03:58:40;1.00;;;0.70;;
4106;SDS011;21906;50.812;7.132;2023-01-15T04:01:14;1.50;;;0.70;;
4106;SDS011;21906;50.812;7.132;2023-01-15T04:03:43;1.10;;;0.70;;
4106;SDS011;21906;50.812;7.132;2023-01-15T04:06:12;2.10;;;0.70;;
4106;SDS011;21906;50.812;7.132;2023-01-15T04:08:39;1.30;;;0.67;;
4106;SDS011;21906;50.812;7.132;2023-01-15T04:11:06;2.70;;;0.70;;
4106;SDS011;21906;50.812;7.132;2023-01-15T04:13:32;1.27;;;0.70;;
4106;SDS011;21906;50.812;7.132;2023-01-15T04:15:58;3.40;;;0.80;;
4106;SDS011;21906;50.812;7.132;2023-01-15T04:18:24;1.80;;;0.63;;
4106;SDS011;21906;50.812;7.132;2023-01-15T04:20:50;1.00;;;0.60;;
4106;SDS011;21906;50.812;7.132;2023-01-15T04:23:16;1.10;;;0.70;;
4106;SDS011;21906;50.812;7.132;2023-01-15T04:25:42;1.67;;;0.67;;
4106;SDS011;21906;50.812;7.132;2023-01-15T04:28:08;2.30;;;0.70;;
4106;SDS011;21906;50.812;7.132;2023-01-15T04:30:34;1.47;;;0.70;;
4106;SDS011;21906;50.812;7.132;2023-01-15T04:33:00;2.73;;;0.90;;
4106;SDS011;21906;50.812;7.132;2023-01-15T04:35:26;1.67;;;0.80;;
4106;SDS011;21906;50.812;7.132;2023-01-15T04:37:58;0.83;;;0.70;;
4106;SDS011;21906;50.812;7.132;2023-01-15T04:40:24;2.00;;;0.70;;
4106;SDS011;21906;50.812;7.132;2023-01-15T04:43:09;2.23;;;0.70;;
4106;SDS011;21906;50.812;7.132;2023-01-15T04:45:55;2.13;;;0.70;;
4106;SDS011;21906;50.812;7.132;2023-01-15T04:48:21;3.03;;;0.80;;
4106;SDS011;21906;50.812;7.132;2023-01-15T04:50:47;1.40;;;0.80;;
4106;SDS011;21906;50.812;7.132;2023-01-15T04:53:13;1.47;;;0.70;;
4106;SDS011;21906;50.812;7.132;2023-01-15T04:55:39;3.00;;;0.73;;
4106;SDS011;21906;50.812;7.132;2023-01-15T04:58:04;1.40;;;0.80;;
4106;SDS011;21906;50.812;7.132;2023-01-15T05:00:30;1.40;;;0.70;;
4106;SDS011;21906;50.812;7.132;2023-01-15T05:02:56;0.70;;;0.70;;
4106;SDS011;21906;50.812;7.132;2023-01-15T05:05:21;2.23;;;1.00;;
4106;SDS011;21906;50.812;7.132;2023-01-15T05:07:47;1.10;;;0.70;;
4106;SDS011;21906;50.812;7.132;2023-01-15T05:10:13;1.57;;;0.80;;
4106;SDS011;21906;50.812;7.132;2023-01-15T05:12:38;0.90;;;0.60;;
4106;SDS011;21906;50.812;7.132;2023-01-15T05:15:04;2.17;;;0.67;;
4106;SDS011;21906;50.812;7.132;2023-01-15T05:17:33;1.80;;;0.70;;
4106;SDS011;21906;50.812;7.132;2023-01-15T05:19:59;1.07;;;0.63;;
4106;SDS011;21906;50.812;7.132;2023-01-15T05:22:24;1.87;;;0.80;;
4106;SDS011;21906;50.812;7.132;2023-01-15T05:24:50;3.40;;;1.00;;
4106;SDS011;21906;50.812;7.132;2023-01-15T05:27:16;1.33;;;0.70;;
4106;SDS011;21906;50.812;7.132;2023-01-15T05:29:41;1.07;;;0.60;;
4106;SDS011;21906;50.812;7.132;2023-01-15T05:32:07;3.10;;;0.90;;
4106;SDS011;21906;50.812;7.132;2023-01-15T05:34:33;1.07;;;0.80;;
4106;SDS011;21906;50.812;7.132;2023-01-15T05:36:58;1.43;;;0.63;;
4106;SDS011;21906;50.812;7.132;2023-01-15T05:39:24;0.97;;;0.50;;
4106;SDS011;21906;50.812;7.132;2023-01-15T05:41:50;2.03;;;0.70;;
4106;SDS011;21906;50.812;7.132;2023-01-15T05:44:24;2.13;;;0.70;;
4106;SDS011;21906;50.812;7.132;2023-01-15T05:46:52;4.30;;;0.87;;
4106;SDS011;21906;50.812;7.132;2023-01-15T05:49:21;1.83;;;0.80;;
4106;SDS011;21906;50.812;7.132;2023-01-15T05:51:48;1.07;;;0.70;;
4106;SDS011;21906;50.812;7.132;2023-01-15T05:54:15;2.03;;;0.63;;
4106;SDS011;21906;50.812;7.132;2023-01-15T05:56:43;1.40;;;0.80;;
4106;SDS011;21906;50.812;7.132;2023-01-15T05:59:10;2.00;;;0.80;;
4106;SDS011;21906;50.812;7.132;2023-01-15T06:01:36;1.80;;;0.80;;
4106;SDS011;21906;50.812;7.132;2023-01-15T06:04:03;3.03;;;0.77;;
4106;SDS011;21906;50.812;7.132;2023-01-15T06:06:30;2.47;;;0.90;;
4106;SDS011;21906;50.812;7.132;2023-01-15T06:08:56;2.10;;;0.80;;
4106;SDS011;21906;50.812;7.132;2023-01-15T06:11:22;4.30;;;0.70;;
4106;SDS011;21906;50.812;7.132;2023-01-15T06:13:48;1.97;;;0.80;;
4106;SDS011;21906;50.812;7.132;2023-01-15T06:16:14;2.00;;;0.80;;
4106;SDS011;21906;50.812;7.132;2023-01-15T06:18:41;4.37;;;0.90;;
4106;SDS011;21906;50.812;7.132;2023-01-15T06:21:07;4.70;;;0.70;;
4106;SDS011;21906;50.812;7.132;2023-01-15T06:23:35;0.80;;;0.53;;
4106;SDS011;21906;50.812;7.132;2023-01-15T06:26:01;2.63;;;0.80;;
4106;SDS011;21906;50.812;7.132;2023-01-15T06:28:28;2.70;;;1.07;;
4106;SDS011;21906;50.812;7.132;2023-01-15T06:30:54;1.03;;;0.70;;
4106;SDS011;21906;50.812;7.132;2023-01-15T06:33:20;4.97;;;0.90;;
4106;SDS011;21906;50.812;7.132;2023-01-15T06:35:46;1.57;;;0.60;;
4106;SDS011;21906;50.812;7.132;2023-01-15T06:38:12;1.47;;;0.70;;
4106;SDS011;21906;50.812;7.132;2023-01-15T06:40:37;1.10;;;1.00;;
4106;SDS011;21906;50.812;7.132;2023-01-15T06:43:03;1.03;;;0.67;;
4106;SDS011;21906;50.812;7.132;2023-01-15T06:45:47;2.17;;;0.80;;
4106;SDS011;21906;50.812;7.132;2023-01-15T06:48:32;1.00;;;0.50;;
4106;SDS011;21906;50.812;7.132;2023-01-15T06:50:58;1.03;;;0.50;;
4106;SDS011;21906;50.812;7.132;2023-01-15T06:53:23;0.77;;;0.47;;
4106;SDS011;21906;50.812;7.132;2023-01-15T06:55:49;0.80;;;0.50;;
4106;SDS011;21906;50.812;7.132;2023-01-15T06:58:15;0.80;;;0.50;;
4106;SDS011;21906;50.812;7.132;2023-01-15T07:00:41;0.70;;;0.50;;
4106;SDS011;21906;50.812;7.132;2023-01-15T07:03:08;3.27;;;0.50;;
4106;SDS011;21906;50.812;7.132;2023-01-15T07:05:37;0.73;;;0.50;;
4106;SDS011;21906;50.812;7.132;2023-01-15T07:08:03;0.80;;;0.50;;
4106;SDS011;21906;50.812;7.132;2023-01-15T07:10:29;1.50;;;0.50;;
4106;SDS011;21906;50.812;7.132;2023-01-15T07:12:54;0.70;;;0.50;;
4106;SDS011;21906;50.812;7.132;2023-01-15T07:15:20;0.70;;;0.70;;
4106;SDS011;21906;50.812;7.132;2023-01-15T07:17:45;1.40;;;0.60;;
4106;SDS011;21906;50.812;7.132;2023-01-15T07:20:11;0.90;;;0.50;;
4106;SDS011;21906;50.812;7.132;2023-01-15T07:22:37;0.97;;;0.60;;
4106;SDS011;21906;50.812;7.132;2023-01-15T07:25:02;0.73;;;0.47;;
4106;SDS011;21906;50.812;7.132;2023-01-15T07:27:28;1.50;;;0.63;;
4106;SDS011;21906;50.812;7.132;2023-01-15T07:29:54;2.07;;;0.60;;
4106;SDS011;21906;50.812;7.132;2023-01-15T07:32:20;1.67;;;1.13;;
4106;SDS011;21906;50.812;7.132;2023-01-15T07:34:45;0.77;;;0.60;;
4106;SDS011;21906;50.812;7.132;2023-01-15T07:37:11;2.03;;;0.60;;
4106;SDS011;21906;50.812;7.132;2023-01-15T07:39:36;0.73;;;0.50;;
4106;SDS011;21906;50.812;7.132;2023-01-15T07:42:02;0.90;;;0.50;;
4106;SDS011;21906;50.812;7.132;2023-01-15T07:44:46;1.00;;;0.60;;
4106;SDS011;21906;50.812;7.132;2023-01-15T07:47:30;1.27;;;0.60;;
4106;SDS011;21906;50.812;7.132;2023-01-15T07:50:19;0.90;;;0.60;;
4106;SDS011;21906;50.812;7.132;2023-01-15T07:52:47;0.70;;;0.50;;
4106;SDS011;21906;50.812;7.132;2023-01-15T07:55:13;0.80;;;0.50;;
4106;SDS011;21906;50.812;7.132;2023-01-15T07:57:41;0.70;;;0.57;;
4106;SDS011;21906;50.812;7.132;2023-01-15T08:00:09;0.73;;;0.50;;
4106;SDS011;21906;50.812;7.132;2023-01-15T08:02:37;0.90;;;0.60;;
4106;SDS011;21906;50.812;7.132;2023-01-15T08:05:02;0.90;;;0.63;;
4106;SDS011;21906;50.812;7.132;2023-01-15T08:07:28;0.87;;;0.60;;
4106;SDS011;21906;50.812;7.132;2023-01-15T08:09:54;1.00;;;0.50;;
4106;SDS011;21906;50.812;7.132;2023-01-15T08:12:20;0.70;;;0.50;;
4106;SDS011;21906;50.812;7.132;2023-01-15T08:15:04;0.70;;;0.40;;
4106;SDS011;21906;50.812;7.132;2023-01-15T08:17:44;0.70;;;0.47;;
4106;SDS011;21906;50.812;7.132;2023-01-15T08:20:15;0.70;;;0.50;;
4106;SDS011;21906;50.812;7.132;2023-01-15T08:22:48;0.80;;;0.50;;
4106;SDS011;21906;50.812;7.132;2023-01-15T08:25:15;1.03;;;0.60;;
4106;SDS011;21906;50.812;7.132;2023-01-15T08:27:42;0.70;;;0.47;;
4106;SDS011;21906;50.812;7.132;2023-01-15T08:30:10;0.80;;;0.60;;
4106;SDS011;21906;50.812;7.132;2023-01-15T08:32:40;0.70;;;0.53;;
4106;SDS011;21906;50.812;7.132;2023-01-15T08:35:07;1.17;;;0.70;;
4106;SDS011;21906;50.812;7.132;2023-01-15T08:37:33;1.10;;;0.60;;
4106;SDS011;21906;50.812;7.132;2023-01-15T08:39:59;0.83;;;0.50;;
4106;SDS011;21906;50.812;7.132;2023-01-15T08:42:25;1.40;;;1.10;;
4106;SDS011;21906;50.812;7.132;2023-01-15T08:44:50;1.10;;;0.60;;
4106;SDS011;21906;50.812;7.132;2023-01-15T08:47:16;1.00;;;0.50;;
4106;SDS011;21906;50.812;7.132;2023-01-15T08:49:42;1.20;;;0.70;;
4106;SDS011;21906;50.812;7.132;2023-01-15T08:52:08;0.80;;;0.70;;
4106;SDS011;21906;50.812;7.132;2023-01-15T08:54:34;1.57;;;0.73;;
4106;SDS011;21906;50.812;7.132;2023-01-15T08:57:00;0.80;;;0.60;;
4106;SDS011;21906;50.812;7.132;2023-01-15T08:59:25;1.30;;;0.80;;
4106;SDS011;21906;50.812;7.132;2023-01-15T09:01:51;1.20;;;0.67;;
4106;SDS011;21906;50.812;7.132;2023-01-15T09:04:18;1.10;;;0.70;;
4106;SDS011;21906;50.812;7.132;2023-01-15T09:06:45;0.90;;;0.60;;
4106;SDS011;21906;50.812;7.132;2023-01-15T09:09:11;1.30;;;0.80;;
4106;SDS011;21906;50.812;7.132;2023-01-15T09:11:38;1.30;;;0.70;;
4106;SDS011;21906;50.812;7.132;2023-01-15T09:14:05;1.30;;;0.60;;
4106;SDS011;21906;50.812;7.132;2023-01-15T09:16:35;1.50;;;0.60;;
4106;SDS011;21906;50.812;7.132;2023-01-15T09:19:01;1.30;;;0.80;;
4106;SDS011;21906;50.812;7.132;2023-01-15T09:21:27;1.10;;;0.87;;
4106;SDS011;21906;50.812;7.132;2023-01-15T09:23:53;1.43;;;0.90;;
4106;SDS011;21906;50.812;7.132;2023-01-15T09:26:24;1.83;;;1.30;;
4106;SDS011;21906;50.812;7.132;2023-01-15T09:28:50;2.53;;;1.00;;
4106;SDS011;21906;50.812;7.132;2023-01-15T09:31:15;1.20;;;1.00;;
4106;SDS011;21906;50.812;7.132;2023-01-15T09:33:41;5.93;;;1.20;;
4106;SDS011;21906;50.812;7.132;2023-01-15T09:36:13;3.60;;;0.83;;
4106;SDS011;21906;50.812;7.132;2023-01-15T09:38:40;2.20;;;0.90;;
4106;SDS011;21906;50.812;7.132;2023-01-15T09:41:12;1.73;;;0.80;;
4106;SDS011;21906;50.812;7.132;2023-01-15T09:44:00;2.30;;;1.17;;
4106;SDS011;21906;50.812;7.132;2023-01-15T09:46:44;1.70;;;0.90;;
4106;SDS011;21906;50.812;7.132;2023-01-15T09:55:04;0.80;;;0.80;;
4106;SDS011;21906;50.812;7.132;2023-01-15T09:57:39;1.17;;;0.83;;
4106;SDS011;21906;50.812;7.132;2023-01-15T10:00:06;2.13;;;1.23;;
4106;SDS011;21906;50.812;7.132;2023-01-15T10:05:34;4.30;;;1.33;;
4106;SDS011;21906;50.812;7.132;2023-01-15T10:08:20;3.70;;;1.10;;
4106;SDS011;21906;50.812;7.132;2023-01-15T10:10:54;2.97;;;1.23;;
4106;SDS011;21906;50.812;7.132;2023-01-15T10:16:00;4.10;;;1.37;;
4106;SDS011;21906;50.812;7.132;2023-01-15T10:18:27;2.47;;;1.00;;
4106;SDS011;21906;50.812;7.132;2023-01-15T10:21:03;2.23;;;1.20;;
4106;SDS011;21906;50.812;7.132;2023-01-15T10:26:38;2.27;;;1.10;;
4106;SDS011;21906;50.812;7.132;2023-01-15T10:38:01;1.60;;;1.20;;
4106;SDS011;21906;50.812;7.132;2023-01-15T10:41:26;1.70;;;1.00;;
4106;SDS011;21906;50.812;7.132;2023-01-15T10:44:14;2.40;;;1.10;;
4106;SDS011;21906;50.812;7.132;2023-01-15T10:46:52;2.50;;;1.10;;
4106;SDS011;21906;50.812;7.132;2023-01-15T10:49:25;2.60;;;1.00;;
4106;SDS011;21906;50.812;7.132;2023-01-15T10:51:56;3.90;;;1.50;;
4106;SDS011;21906;50.812;7.132;2023-01-15T10:54:40;3.60;;;1.00;;
4106;SDS011;21906;50.812;7.132;2023-01-15T10:57:35;2.30;;;1.07;;
4106;SDS011;21906;50.812;7.132;2023-01-15T11:00:23;1.80;;;1.10;;
4106;SDS011;21906;50.812;7.132;2023-01-15T11:02:51;3.53;;;1.20;;
4106;SDS011;21906;50.812;7.132;2023-01-15T11:05:26;2.07;;;1.00;;
4106;SDS011;21906;50.812;7.132;2023-01-15T11:07:54;5.50;;;1.10;;
4106;SDS011;21906;50.812;7.132;2023-01-15T11:10:20;3.60;;;1.40;;
4106;SDS011;21906;50.812;7.132;2023-01-15T11:12:55;3.93;;;1.10;;
4106;SDS011;21906;50.812;7.132;2023-01-15T11:15:45;2.80;;;0.90;;
4106;SDS011;21906;50.812;7.132;2023-01-15T11:18:39;2.10;;;1.20;;
4106;SDS011;21906;50.812;7.132;2023-01-15T11:21:25;2.97;;;1.17;;
4106;SDS011;21906;50.812;7.132;2023-01-15T11:23:52;2.60;;;0.93;;
4106;SDS011;21906;50.812;7.132;2023-01-15T11:26:21;1.83;;;0.90;;
4106;SDS011;21906;50.812;7.132;2023-01-15T11:28:57;2.23;;;1.00;;
4106;SDS011;21906;50.812;7.132;2023-01-15T11:31:35;2.27;;;1.00;;
4106;SDS011;21906;50.812;7.132;2023-01-15T11:34:03;1.37;;;1.00;;
4106;SDS011;21906;50.812;7.132;2023-01-15T11:36:31;2.03;;;0.90;;
4106;SDS011;21906;50.812;7.132;2023-01-15T11:38:57;1.53;;;0.83;;
4106;SDS011;21906;50.812;7.132;2023-01-15T11:41:30;1.93;;;0.80;;
4106;SDS011;21906;50.812;7.132;2023-01-15T11:44:17;1.57;;;0.93;;
4106;SDS011;21906;50.812;7.132;2023-01-15T11:47:03;2.57;;;1.00;;
4106;SDS011;21906;50.812;7.132;2023-01-15T11:49:56;2.30;;;0.80;;
4106;SDS011;21906;50.812;7.132;2023-01-15T11:52:51;1.73;;;0.97;;
4106;SDS011;21906;50.812;7.132;2023-01-15T11:55:22;1.37;;;0.93;;
4106;SDS011;21906;50.812;7.132;2023-01-15T11:57:50;1.60;;;1.13;;
4106;SDS011;21906;50.812;7.132;2023-01-15T12:00:23;3.40;;;1.30;;
4106;SDS011;21906;50.812;7.132;2023-01-15T12:02:56;3.00;;;1.13;;
4106;SDS011;21906;50.812;7.132;2023-01-15T12:05:33;2.90;;;1.10;;
4106;SDS011;21906;50.812;7.132;2023-01-15T12:08:09;2.33;;;1.10;;
4106;SDS011;21906;50.812;7.132;2023-01-15T12:16:24;4.93;;;1.10;;
4106;SDS011;21906;50.812;7.132;2023-01-15T12:18:56;2.57;;;1.17;;
4106;SDS011;21906;50.812;7.132;2023-01-15T12:22:08;2.83;;;1.10;;
4106;SDS011;21906;50.812;7.132;2023-01-15T12:25:18;2.10;;;1.10;;
4106;SDS011;21906;50.812;7.132;2023-01-15T12:27:51;6.60;;;1.10;;
4106;SDS011;21906;50.812;7.132;2023-01-15T12:33:14;2.10;;;1.73;;
4106;SDS011;21906;50.812;7.132;2023-01-15T12:36:05;4.10;;;1.30;;
4106;SDS011;21906;50.812;7.132;2023-01-15T12:41:29;1.57;;;0.90;;
4106;SDS011;21906;50.812;7.132;2023-01-15T12:44:20;3.30;;;1.00;;
4106;SDS011;21906;50.812;7.132;2023-01-15T12:47:13;2.60;;;1.00;;
4106;SDS011;21906;50.812;7.132;2023-01-15T12:49:46;3.77;;;1.40;;
4106;SDS011;21906;50.812;7.132;2023-01-15T12:52:21;2.13;;;0.90;;
4106;SDS011;21906;50.812;7.132;2023-01-15T12:54:53;1.93;;;1.00;;
4106;SDS011;21906;50.812;7.132;2023-01-15T12:57:35;2.53;;;1.30;;
4106;SDS011;21906;50.812;7.132;2023-01-15T13:00:18;4.50;;;1.27;;
4106;SDS011;21906;50.812;7.132;2023-01-15T13:05:36;2.47;;;1.20;;
4106;SDS011;21906;50.812;7.132;2023-01-15T13:11:12;3.27;;;1.07;;
4106;SDS011;21906;50.812;7.132;2023-01-15T13:13:39;2.80;;;1.23;;
4106;SDS011;21906;50.812;7.132;2023-01-15T13:16:22;2.83;;;1.00;;
4106;SDS011;21906;50.812;7.132;2023-01-15T13:21:45;1.10;;;0.90;;
4106;SDS011;21906;50.812;7.132;2023-01-15T13:27:12;2.30;;;1.10;;
4106;SDS011;21906;50.812;7.132;2023-01-15T13:32:31;2.90;;;1.10;;
4106;SDS011;21906;50.812;7.132;2023-01-15T13:37:57;3.07;;;1.07;;
4106;SDS011;21906;50.812;7.132;2023-01-15T13:40:38;3.53;;;1.10;;
4106;SDS011;21906;50.812;7.132;2023-01-15T13:43:08;1.53;;;1.13;;
4106;SDS011;21906;50.812;7.132;2023-01-15T13:46:07;1.80;;;0.90;;
4106;SDS011;21906;50.812;7.132;2023-01-15T13:48:40;3.00;;;1.00;;
4106;SDS011;21906;50.812;7.132;2023-01-15T13:51:20;2.03;;;1.30;;
4106;SDS011;21906;50.812;7.132;2023-01-15T13:53:47;2.13;;;1.00;;
4106;SDS011;21906;50.812;7.132;2023-01-15T13:56:23;1.80;;;0.97;;
4106;SDS011;21906;50.812;7.132;2023-01-15T13:59:01;1.70;;;0.80;;
4106;SDS011;21906;50.812;7.132;2023-01-15T14:09:35;2.67;;;0.90;;
4106;SDS011;21906;50.812;7.132;2023-01-15T14:28:14;2.50;;;1.20;;
4106;SDS011;21906;50.812;7.132;2023-01-15T14:37:00;2.60;;;1.07;;
4106;SDS011;21906;50.812;7.132;2023-01-15T14:39:46;2.73;;;1.00;;
4106;SDS011;21906;50.812;7.132;2023-01-15T14:45:20;3.80;;;0.90;;
4106;SDS011;21906;50.812;7.132;2023-01-15T14:52:53;1.17;;;0.90;;
4106;SDS011;21906;50.812;7.132;2023-01-15T14:55:20;2.70;;;1.20;;
4106;SDS011;21906;50.812;7.132;2023-01-15T14:58:00;1.50;;;1.00;;
4106;SDS011;21906;50.812;7.132;2023-01-15T15:00:36;2.17;;;1.00;;
4106;SDS011;21906;50.812;7.132;2023-01-15T15:03:13;1.30;;;0.90;;
4106;SDS011;21906;50.812;7.132;2023-01-15T15:05:43;2.43;;;1.23;;
4106;SDS011;21906;50.812;7.132;2023-01-15T15:08:12;1.00;;;0.70;;
4106;SDS011;21906;50.812;7.132;2023-01-15T15:10:40;2.63;;;1.00;;
4106;SDS011;21906;50.812;7.132;2023-01-15T15:18:21;2.03;;;1.10;;
4106;SDS011;21906;50.812;7.132;2023-01-15T15:21:04;1.10;;;0.77;;
4106;SDS011;21906;50.812;7.132;2023-01-15T15:26:24;2.40;;;0.90;;
4106;SDS011;21906;50.812;7.132;2023-01-15T15:28:54;1.40;;;0.80;;
4106;SDS011;21906;50.812;7.132;2023-01-15T15:31:21;2.23;;;1.00;;
4106;SDS011;21906;50.812;7.132;2023-01-15T15:33:50;1.50;;;0.90;;
4106;SDS011;21906;50.812;7.132;2023-01-15T15:36:18;1.90;;;0.90;;
4106;SDS011;21906;50.812;7.132;2023-01-15T15:38:52;2.50;;;0.90;;
4106;SDS011;21906;50.812;7.132;2023-01-15T15:41:28;1.50;;;0.90;;
4106;SDS011;21906;50.812;7.132;2023-01-15T15:44:39;1.10;;;0.90;;
4106;SDS011;21906;50.812;7.132;2023-01-15T15:47:25;1.33;;;0.90;;
4106;SDS011;21906;50.812;7.132;2023-01-15T15:50:20;2.80;;;0.90;;
4106;SDS011;21906;50.812;7.132;2023-01-15T15:52:49;1.93;;;1.00;;
4106;SDS011;21906;50.812;7.132;2023-01-15T15:55:16;2.73;;;0.90;;
4106;SDS011;21906;50.812;7.132;2023-01-15T15:57:43;1.60;;;1.07;;
4106;SDS011;21906;50.812;7.132;2023-01-15T16:00:16;1.63;;;1.00;;
4106;SDS011;21906;50.812;7.132;2023-01-15T16:02:43;1.40;;;1.00;;
4106;SDS011;21906;50.812;7.132;2023-01-15T16:07:44;4.87;;;1.33;;
4106;SDS011;21906;50.812;7.132;2023-01-15T16:10:12;1.50;;;1.17;;
4106;SDS011;21906;50.812;7.132;2023-01-15T16:12:53;2.70;;;1.10;;
4106;SDS011;21906;50.812;7.132;2023-01-15T16:15:23;2.53;;;1.20;;
4106;SDS011;21906;50.812;7.132;2023-01-15T16:17:54;1.60;;;1.30;;
4106;SDS011;21906;50.812;7.132;2023-01-15T16:20:21;1.33;;;1.00;;
4106;SDS011;21906;50.812;7.132;2023-01-15T16:22:58;2.40;;;1.30;;
4106;SDS011;21906;50.812;7.132;2023-01-15T16:25:27;1.90;;;1.43;;
4106;SDS011;21906;50.812;7.132;2023-01-15T16:27:57;1.80;;;1.17;;
4106;SDS011;21906;50.812;7.132;2023-01-15T16:30:23;2.23;;;0.97;;
4106;SDS011;21906;50.812;7.132;2023-01-15T16:32:49;1.63;;;1.20;;
4106;SDS011;21906;50.812;7.132;2023-01-15T16:35:20;2.43;;;1.10;;
4106;SDS011;21906;50.812;7.132;2023-01-15T16:37:51;1.73;;;0.97;;
4106;SDS011;21906;50.812;7.132;2023-01-15T16:40:29;1.20;;;1.10;;
4106;SDS011;21906;50.812;7.132;2023-01-15T16:43:09;2.23;;;1.20;;
4106;SDS011;21906;50.812;7.132;2023-01-15T16:46:00;3.30;;;1.33;;
4106;SDS011;21906;50.812;7.132;2023-01-15T16:48:45;2.03;;;0.97;;
4106;SDS011;21906;50.812;7.132;2023-01-15T16:51:29;2.60;;;1.20;;
4106;SDS011;21906;50.812;7.132;2023-01-15T16:53:59;1.80;;;1.20;;
4106;SDS011;21906;50.812;7.132;2023-01-15T16:59:03;2.93;;;1.30;;
4106;SDS011;21906;50.812;7.132;2023-01-15T17:01:39;2.30;;;1.30;;
4106;SDS011;21906;50.812;7.132;2023-01-15T17:04:16;2.17;;;1.30;;
4106;SDS011;21906;50.812;7.132;2023-01-15T17:07:03;1.33;;;1.20;;
4106;SDS011;21906;50.812;7.132;2023-01-15T17:09:47;1.50;;;1.13;;
4106;SDS011;21906;50.812;7.132;2023-01-15T17:14:44;1.67;;;1.30;;
4106;SDS011;21906;50.812;7.132;2023-01-15T17:17:14;2.17;;;1.20;;
4106;SDS011;21906;50.812;7.132;2023-01-15T17:19:46;1.63;;;1.27;;
4106;SDS011;21906;50.812;7.132;2023-01-15T17:22:25;3.27;;;1.50;;
4106;SDS011;21906;50.812;7.132;2023-01-15T17:24:55;1.90;;;1.40;;
4106;SDS011;21906;50.812;7.132;2023-01-15T17:27:23;2.07;;;1.50;;
4106;SDS011;21906;50.812;7.132;2023-01-15T17:29:50;2.97;;;1.50;;
4106;SDS011;21906;50.812;7.132;2023-01-15T17:32:17;3.20;;;1.70;;
4106;SDS011;21906;50.812;7.132;2023-01-15T17:35:24;1.20;;;1.10;;
4106;SDS011;21906;50.812;7.132;2023-01-15T17:38:03;1.50;;;0.90;;
4106;SDS011;21906;50.812;7.132;2023-01-15T17:40:31;2.00;;;1.20;;
4106;SDS011;21906;50.812;7.132;2023-01-15T17:42:57;2.87;;;1.13;;
4106;SDS011;21906;50.812;7.132;2023-01-15T17:47:52;2.63;;;1.47;;
4106;SDS011;21906;50.812;7.132;2023-01-15T17:50:18;2.00;;;1.40;;